Boca Raton, FL

10:58 PM EST on January 21, 2017 (GMT -0500)
Spanish Village | | Change Station

Elev 13 ft 26.36 °N, 80.09 °W | Updated 3 minutes ago

Partly Cloudy
Partly Cloudy
70.9 °F
Feels Like 71 °F
N
1.0
Wind Variable Wind from SSW
Gusts 3.0 mph

Today
High -- | Low -- °F
--% Chance of Precip.
Yesterday
High -- | Low -- °F
Precip. -- in
Pressure 29.88 in
Visibility 10.0 miles
Clouds Clear
Heat Index 71 °F
Dew Point 64 °F
Humidity 80%
Rainfall 0.00 in
Snow Depth Not available.
7:08 AM 5:54 PM
Waning Crescent, 30% visible
METAR KPMP 220353Z AUTO 18005KT 10SM CLR 22/17 A2988 RMK AO2 SLP118 T02220172
Pressure 29.88 in
Visibility 10.0 miles
Clouds Clear
Heat Index 71 °F
Dew Point 64 °F
Humidity 80%
Rainfall 0.00 in
Snow Depth Not available.
7:08 AM 5:54 PM
Waning Crescent, 30% visible
METAR KPMP 220353Z AUTO 18005KT 10SM CLR 22/17 A2988 RMK AO2 SLP118 T02220172

Get Your Daily Forecast Email!

Thanks for signing up!

Be on the lookout for a verification email in your inbox.

You'll start receiving the daily forecast at 8 AM.

×

10-Day Weather Forecast

Almanac

Astronomy

Jan. 21, 2017 Rise Set
Actual Time
Civil Twilight
Nautical Twilight
Astronomical Twilight
Moon
Length of Visible Light
Length of Day
Tomorrow will be .
, % of the Moon is Illuminated

Today's Extremes

State Highs State Lows

Community

WunderPhotos

Upload Photos

1,962,540 photos uploaded!

WunderBlog® & News

Nearby

Air Quality

  Air Quality AQ Index Pollutant
Not available.

Snow Depth

Station Depth Elevation

Earthquake Activity

City Distance Mag. Time & Date
Minimum magnitude displayed is 2.5.

Coastal Water Temperatures

Place Temperature

Stations

Nearby Weather Stations

Station Location Temp. Windchill Dew Point Humidity Wind Precip. Elev Updated Type
                   

Watches & Warnings

Small Craft Advisory, Gale Watch
Issued: 9:21 PM EST Jan. 21, 2017 – National Weather Service

... Small Craft Advisory remains in effect from 4 am to 7 PM EST
Sunday...
... Gale watch remains in effect from Sunday evening through
Monday evening...
... Small Craft Advisory remains in effect from 7 PM Monday to
7 am EST Tuesday...

* winds and seas... west winds 25 to 35 kt with gusts up to 40
kt. Seas 7 to 12 feet.

Precautionary/preparedness actions...

A Small Craft Advisory means that wind speeds of 20 to 33 knots
are expected to produce hazardous wave conditions to small craft.
Inexperienced mariners... especially those operating smaller
vessels should avoid navigating in these conditions.

A gale watch is issued when the risk of gale force winds of 34 to
47 knots has significantly increased... but the specific timing
and/or location is still uncertain. It is intended to provide
additional lead time for mariners who may wish to consider
altering their plans.